createdAt,value
2019-05-28T04:44:28.165Z,123
2019-05-28T04:45:29.490Z,129
2019-05-28T04:46:30.850Z,135
2019-05-28T04:47:32.208Z,140
2019-05-28T04:48:33.655Z,140
2019-05-28T04:49:35.165Z,151
2019-05-28T04:50:36.547Z,157
2019-05-28T04:51:37.896Z,157
2019-05-28T04:52:39.260Z,157
2019-05-28T04:53:40.621Z,146
2019-05-28T04:54:41.977Z,123
2019-05-28T04:55:43.364Z,101
2019-05-28T04:56:44.732Z,90
2019-05-28T04:57:46.108Z,78
2019-05-28T04:58:47.468Z,73
2019-05-28T04:59:48.853Z,73
2019-05-28T05:00:50.223Z,73
2019-05-28T05:01:51.603Z,78
2019-05-28T05:02:59.290Z,84
2019-05-28T05:03:54.278Z,78
2019-05-28T05:04:55.778Z,90
2019-05-28T05:05:57.102Z,106
2019-05-28T05:06:58.455Z,112
2019-05-28T05:07:59.881Z,112
2019-05-28T05:09:01.291Z,90
2019-05-28T05:10:02.713Z,90
2019-05-28T05:11:04.051Z,95
2019-05-28T05:12:05.418Z,90
2019-05-28T05:13:06.847Z,106
2019-05-28T05:14:08.268Z,135
2019-05-28T05:15:09.741Z,146
2019-05-28T05:16:11.025Z,168
2019-05-28T05:17:12.481Z,180
2019-05-28T05:18:13.999Z,185
2019-05-28T05:19:15.373Z,191
2019-05-28T05:20:16.775Z,196
2019-05-28T05:21:18.133Z,191
2019-05-28T05:22:19.487Z,202
2019-05-28T05:23:20.868Z,202
2019-05-28T05:24:22.236Z,208
2019-05-28T05:25:23.592Z,219
2019-05-28T05:26:25.027Z,225
2019-05-28T05:27:26.292Z,236
2019-05-28T05:28:27.653Z,247
2019-05-28T05:29:29.055Z,264
2019-05-28T05:30:30.455Z,275
2019-05-28T05:31:31.799Z,298
2019-05-28T05:32:33.161Z,309
2019-05-28T05:33:34.531Z,320
2019-05-28T05:34:35.928Z,326
2019-05-28T05:35:37.448Z,331
2019-05-28T05:36:38.796Z,331
2019-05-28T05:37:40.158Z,331
2019-05-28T05:38:41.537Z,337
2019-05-28T05:39:42.903Z,331
2019-05-28T05:40:44.270Z,326
2019-05-28T05:41:45.667Z,320
2019-05-28T05:42:47.103Z,309
2019-05-28T05:43:48.453Z,298
2019-05-28T05:44:49.833Z,286
2019-05-28T05:45:51.214Z,275
2019-05-28T05:46:52.585Z,270
2019-05-28T05:47:53.948Z,275
2019-05-28T05:48:55.311Z,264
2019-05-28T05:49:56.672Z,258
2019-05-28T05:50:58.062Z,264
2019-05-28T05:51:59.421Z,258
2019-05-28T05:53:00.837Z,264
2019-05-28T05:54:02.225Z,275
2019-05-28T05:55:03.582Z,270
2019-05-28T05:56:04.963Z,258
2019-05-28T05:57:06.332Z,286
2019-05-28T05:58:07.705Z,286
2019-05-28T05:59:09.062Z,275
2019-05-28T06:00:11.647Z,264
2019-05-28T06:01:11.763Z,241
2019-05-28T06:02:13.129Z,258
2019-05-28T06:03:14.501Z,264
2019-05-28T06:04:15.864Z,253
2019-05-28T06:05:17.219Z,241
2019-05-28T06:06:18.580Z,196
2019-05-28T06:07:19.981Z,185
2019-05-28T06:08:21.325Z,196
2019-05-28T06:09:22.702Z,202
2019-05-28T06:10:24.074Z,196
2019-05-28T06:11:25.432Z,202
2019-05-28T06:12:26.786Z,225
2019-05-28T06:13:28.147Z,230
2019-05-28T06:14:29.513Z,230
2019-05-28T06:15:30.866Z,253
2019-05-28T06:16:32.234Z,264
2019-05-28T06:17:33.604Z,258
2019-05-28T06:18:34.962Z,253
2019-05-28T06:19:36.327Z,247
2019-05-28T06:20:37.712Z,230
2019-05-28T06:21:39.066Z,219
2019-05-28T06:22:40.423Z,208
2019-05-28T06:23:41.779Z,191
2019-05-28T06:24:43.161Z,180
2019-05-28T06:25:44.529Z,180
2019-05-28T06:26:45.910Z,191
2019-05-28T06:27:47.330Z,213
2019-05-28T06:28:48.752Z,225
2019-05-28T06:29:50.054Z,230
2019-05-28T06:30:51.429Z,219
2019-05-28T06:31:52.793Z,230
2019-05-28T06:32:54.149Z,247
2019-05-28T06:33:57.128Z,247
2019-05-28T06:34:56.848Z,219
2019-05-28T06:35:58.242Z,202
2019-05-28T06:36:59.712Z,202
2019-05-28T06:38:01.064Z,208
2019-05-28T06:39:02.428Z,208
2019-05-28T06:40:03.809Z,213
2019-05-28T06:41:05.190Z,230
2019-05-28T06:42:06.547Z,253
2019-05-28T06:43:07.907Z,258
2019-05-28T06:44:09.269Z,264
2019-05-28T06:45:10.633Z,281
2019-05-28T06:46:12.015Z,320
2019-05-28T06:47:13.407Z,365
2019-05-28T06:48:14.757Z,416
2019-05-28T06:49:16.124Z,461
2019-05-28T06:50:17.518Z,483
2019-05-28T06:51:18.850Z,461
2019-05-28T06:52:20.277Z,444
2019-05-28T06:53:21.623Z,433
2019-05-28T06:54:23.021Z,416
2019-05-28T06:55:24.401Z,399
2019-05-28T06:56:25.744Z,388
2019-05-28T06:57:27.142Z,388
2019-05-28T06:58:38.703Z,382
2019-05-28T06:59:29.864Z,382
2019-05-28T07:00:31.223Z,393
2019-05-28T07:01:32.598Z,410
2019-05-28T07:02:34.199Z,416
2019-05-28T07:03:35.305Z,399
2019-05-28T07:04:36.734Z,360
2019-05-28T07:05:38.124Z,309
2019-05-28T07:06:39.482Z,286
2019-05-28T07:07:40.844Z,292
2019-05-28T07:08:42.228Z,315
2019-05-28T07:09:43.594Z,320
2019-05-28T07:10:57.232Z,292
2019-05-28T07:11:46.347Z,270
2019-05-28T07:12:47.734Z,247
2019-05-28T07:13:49.134Z,225
2019-05-28T07:14:50.508Z,202
2019-05-28T07:15:51.901Z,191
2019-05-28T07:16:53.821Z,202
2019-05-28T07:17:54.599Z,213
2019-05-28T07:18:55.963Z,213
2019-05-28T07:19:57.353Z,202
2019-05-28T07:20:58.725Z,208
2019-05-28T07:22:00.103Z,202
2019-05-28T07:23:01.477Z,185
2019-05-28T07:24:05.033Z,180
2019-05-28T07:25:04.216Z,180
2019-05-28T07:26:05.620Z,196
2019-05-28T07:27:06.980Z,208
2019-05-28T07:28:11.575Z,213
2019-05-28T07:29:09.673Z,219
2019-05-28T07:30:11.039Z,236
2019-05-28T07:31:12.510Z,292
2019-05-28T07:32:13.875Z,376
2019-05-28T07:33:15.239Z,483
2019-05-28T07:34:29.722Z,579
2019-05-28T07:35:17.935Z,635
2019-05-28T07:36:19.300Z,646
2019-05-28T07:37:20.664Z,652
2019-05-28T07:38:22.030Z,652
2019-05-28T07:39:23.399Z,675
2019-05-28T07:40:31.615Z,691
2019-05-28T07:41:26.120Z,703
2019-05-28T07:42:32.552Z,736
2019-05-28T07:43:28.849Z,765
2019-05-28T07:44:30.238Z,781
2019-05-28T07:45:31.620Z,781
2019-05-28T07:46:32.990Z,793
2019-05-28T07:47:34.359Z,815
2019-05-28T07:48:35.724Z,849
2019-05-28T07:49:37.114Z,866
2019-05-28T07:50:38.491Z,860
2019-05-28T07:51:39.858Z,821
2019-05-28T07:52:41.221Z,776
2019-05-28T07:53:44.326Z,742
2019-05-28T07:54:45.701Z,770
2019-05-28T07:55:47.094Z,804
2019-05-28T07:56:48.565Z,821
2019-05-28T07:57:49.938Z,832
2019-05-28T07:58:51.342Z,849
2019-05-28T07:59:52.718Z,883
2019-05-28T08:00:54.091Z,939
2019-05-28T08:01:55.478Z,990
2019-05-28T08:02:56.852Z,1006
2019-05-28T08:03:58.218Z,984
2019-05-28T08:04:59.608Z,933
2019-05-28T08:06:00.959Z,849
2019-05-28T08:07:02.324Z,759
2019-05-28T08:08:03.700Z,652
2019-05-28T08:09:05.115Z,601
2019-05-28T08:10:06.496Z,596
2019-05-28T08:11:07.904Z,601
2019-05-28T08:12:09.316Z,601
2019-05-28T08:13:10.724Z,573
2019-05-28T08:14:12.126Z,517
2019-05-28T08:15:13.492Z,466
2019-05-28T08:16:18.516Z,416
2019-05-28T08:17:16.375Z,354
2019-05-28T08:18:17.875Z,315
2019-05-28T08:19:19.260Z,270
2019-05-28T08:20:20.632Z,247
2019-05-28T08:21:22.007Z,219
2019-05-28T08:22:23.374Z,185
2019-05-28T08:23:24.881Z,168
2019-05-28T08:24:26.262Z,225
2019-05-28T08:25:45.419Z,326
2019-05-28T08:26:28.969Z,500
2019-05-28T08:27:30.337Z,697
2019-05-28T08:28:31.711Z,720
2019-05-28T08:29:33.081Z,652
2019-05-28T08:30:34.451Z,652
2019-05-28T08:31:35.834Z,607
2019-05-28T08:32:37.210Z,551
2019-05-28T08:33:38.595Z,360
2019-05-28T08:34:39.984Z,241
2019-05-28T08:35:41.356Z,247
2019-05-28T08:36:42.720Z,241
2019-05-28T08:37:44.090Z,241
2019-05-28T08:38:45.450Z,264
2019-05-28T08:39:46.839Z,309
2019-05-28T08:40:48.207Z,461
2019-05-28T08:41:49.561Z,675
2019-05-28T08:42:50.959Z,748
2019-05-28T08:43:52.341Z,686
2019-05-28T08:44:53.705Z,579
2019-05-28T08:45:55.089Z,534
2019-05-28T08:46:56.466Z,523
2019-05-28T08:47:57.830Z,630
2019-05-28T08:48:59.214Z,731
2019-05-28T08:50:00.582Z,759
2019-05-28T08:51:02.030Z,776
2019-05-28T08:52:03.528Z,843
2019-05-28T08:53:04.908Z,810
2019-05-28T08:54:06.307Z,804
2019-05-28T08:55:07.671Z,793
2019-05-28T08:56:09.030Z,815
2019-05-28T08:57:10.407Z,860
2019-05-28T08:58:12.425Z,866
2019-05-28T08:59:13.266Z,832
2019-05-28T09:00:14.665Z,838
2019-05-28T09:01:16.039Z,866
2019-05-28T09:02:28.043Z,877
2019-05-28T09:03:18.751Z,832
2019-05-28T09:04:20.115Z,855
2019-05-28T09:05:26.326Z,894
2019-05-28T09:06:26.267Z,905
2019-05-28T09:07:24.169Z,888
2019-05-28T09:08:38.802Z,759
2019-05-28T09:09:26.869Z,568
2019-05-28T09:10:28.247Z,466
2019-05-28T09:11:29.815Z,427
2019-05-28T09:12:31.825Z,410
2019-05-28T09:13:33.196Z,433
2019-05-28T09:14:54.373Z,388
2019-05-28T09:15:35.932Z,354
2019-05-28T09:16:37.387Z,320
2019-05-28T09:17:38.746Z,281
2019-05-28T09:18:40.123Z,258
2019-05-28T09:19:41.485Z,258
2019-05-28T09:20:42.864Z,264
2019-05-28T09:21:44.269Z,286
2019-05-28T09:22:45.628Z,331
2019-05-28T09:23:46.999Z,348
2019-05-28T09:24:48.356Z,399
2019-05-28T09:25:49.731Z,478
2019-05-28T09:26:51.113Z,478
2019-05-28T09:27:52.495Z,438
2019-05-28T09:28:53.870Z,455
2019-05-28T09:29:55.459Z,568
2019-05-28T09:30:56.572Z,601
2019-05-28T09:31:57.945Z,556
2019-05-28T09:32:59.355Z,686
2019-05-28T09:34:00.721Z,686
2019-05-28T09:35:02.913Z,540
2019-05-28T09:36:08.466Z,573
2019-05-28T09:37:04.921Z,691
2019-05-28T09:38:06.311Z,900
2019-05-28T09:39:07.721Z,911
2019-05-28T09:40:09.035Z,871
2019-05-28T09:41:10.407Z,961
2019-05-28T09:42:11.807Z,995
2019-05-28T09:43:13.181Z,1023
2019-05-28T09:44:14.632Z,995
2019-05-28T09:45:23.027Z,1018
2019-05-28T09:46:17.473Z,1023
2019-05-28T09:47:18.844Z,967
2019-05-28T09:48:20.226Z,843
2019-05-28T09:49:21.611Z,765
2019-05-28T09:50:30.423Z,708
2019-05-28T09:51:24.335Z,697
2019-05-28T09:52:25.719Z,697
2019-05-28T09:53:27.085Z,708
2019-05-28T09:54:28.475Z,703
2019-05-28T09:55:29.865Z,748
2019-05-28T09:56:32.821Z,821
2019-05-28T09:57:46.263Z,736
2019-05-28T09:58:33.901Z,601
2019-05-28T09:59:41.601Z,534
2019-05-28T10:00:36.606Z,528
2019-05-28T10:01:37.970Z,596
2019-05-28T10:02:39.346Z,725
2019-05-28T10:03:40.717Z,832
2019-05-28T10:04:49.063Z,900
2019-05-28T10:05:57.018Z,1046
2019-05-28T10:06:44.764Z,1040
2019-05-28T10:07:46.137Z,1108
2019-05-28T10:08:47.544Z,1203
2019-05-28T10:09:48.913Z,1299
2019-05-28T10:10:50.283Z,1366
2019-05-28T10:11:51.648Z,1406
2019-05-28T10:12:53.010Z,1428
2019-05-28T10:13:54.383Z,1428
2019-05-28T10:14:55.745Z,1411
2019-05-28T10:15:57.166Z,1389
2019-05-28T10:16:58.571Z,1361
2019-05-28T10:17:59.936Z,1316
2019-05-28T10:19:01.317Z,1260
2019-05-28T10:20:02.708Z,1158
2019-05-28T10:21:17.570Z,838
2019-05-28T10:22:05.413Z,624
2019-05-28T10:23:06.803Z,618
2019-05-28T10:24:08.187Z,736
2019-05-28T10:25:09.659Z,1338
2019-05-28T10:26:10.902Z,1271
2019-05-28T10:27:12.273Z,1136
2019-05-28T10:28:13.652Z,1158
2019-05-28T10:29:15.024Z,1361
2019-05-28T10:30:16.414Z,1625
2019-05-28T10:31:17.776Z,1906
2019-05-28T10:32:19.159Z,2030
2019-05-28T10:33:20.574Z,1766
2019-05-28T10:34:21.917Z,1991
2019-05-28T10:35:23.450Z,1963
2019-05-28T10:36:35.301Z,2103
2019-05-28T10:37:26.183Z,2182
2019-05-28T10:38:27.556Z,2373
2019-05-28T10:39:28.933Z,2610
2019-05-28T10:40:30.303Z,2401
2019-05-28T10:41:31.686Z,2188
2019-05-28T10:42:33.068Z,2058
2019-05-28T10:43:34.466Z,2058
2019-05-28T10:44:35.834Z,1946
2019-05-28T10:45:37.238Z,2244
2019-05-28T10:46:38.614Z,2154
2019-05-28T10:47:40.006Z,2160
2019-05-28T10:48:41.388Z,2171
2019-05-28T10:49:42.768Z,2025
2019-05-28T10:50:44.150Z,2013
2019-05-28T10:51:45.527Z,2036
2019-05-28T10:52:46.965Z,2171
2019-05-28T10:53:48.573Z,2188
2019-05-28T10:54:49.947Z,2396
2019-05-28T10:55:51.331Z,3324
2019-05-28T10:56:52.733Z,3583
2019-05-28T10:57:54.111Z,3780
2019-05-28T10:58:55.491Z,3729
2019-05-28T10:59:56.871Z,3628
2019-05-28T11:00:58.281Z,3481
2019-05-28T11:01:59.793Z,3729
2019-05-28T11:03:02.025Z,3571
2019-05-28T11:04:03.422Z,3256
2019-05-28T11:05:06.257Z,3290
2019-05-28T11:06:07.653Z,1158
2019-05-28T11:07:10.451Z,3858
2019-05-28T11:08:11.911Z,3639
2019-05-28T11:09:13.997Z,3504
2019-05-28T11:10:23.879Z,1777
2019-05-28T11:11:18.095Z,3431
2019-05-28T11:12:20.221Z,3296
2019-05-28T11:13:22.221Z,3043
2019-05-28T11:14:24.220Z,3178
2019-05-28T11:15:26.616Z,3256
2019-05-28T11:16:28.892Z,3127
2019-05-28T11:17:30.345Z,3178
2019-05-28T11:18:31.719Z,2705
2019-05-28T11:19:33.121Z,2778
2019-05-28T11:20:34.571Z,2818
2019-05-28T11:21:36.722Z,3071
2019-05-28T11:22:38.745Z,2750
2019-05-28T11:23:40.747Z,3155
2019-05-28T11:24:42.729Z,1248
2019-05-28T11:25:45.091Z,3943
2019-05-28T11:26:46.485Z,1445
2019-05-28T11:27:48.828Z,3358
2019-05-28T11:28:51.143Z,1614
2019-05-28T11:29:53.268Z,2576
2019-05-28T11:30:55.477Z,3330
2019-05-28T11:31:56.869Z,3926
2019-05-28T11:32:58.326Z,3633
2019-05-28T11:33:59.725Z,3808
2019-05-28T11:35:01.152Z,3830
2019-05-28T11:36:03.491Z,4083
2019-05-28T11:37:09.374Z,3673
2019-05-28T11:38:07.920Z,3358
2019-05-28T11:39:09.326Z,1237
2019-05-28T11:40:12.043Z,1164
2019-05-28T11:41:13.950Z,2525
2019-05-28T11:42:15.992Z,1108
2019-05-28T11:43:17.387Z,1653
2019-05-28T11:44:19.397Z,1057
2019-05-28T11:45:21.947Z,1215
2019-05-28T11:46:23.901Z,1271
2019-05-28T11:47:26.512Z,1102
2019-05-28T11:48:27.862Z,1226
2019-05-28T11:49:29.841Z,1170
2019-05-28T11:50:31.826Z,2947
2019-05-28T11:51:34.209Z,2936
2019-05-28T11:52:36.491Z,1350
2019-05-28T11:53:38.734Z,1473
2019-05-28T11:54:40.115Z,1220
2019-05-28T11:55:42.471Z,1018
2019-05-28T11:56:46.027Z,855
2019-05-28T11:57:48.216Z,742
2019-05-28T11:58:50.358Z,663
2019-05-28T11:59:53.043Z,590
2019-05-28T12:00:54.419Z,551
2019-05-28T12:01:56.505Z,528
2019-05-28T12:02:58.552Z,523
2019-05-28T12:04:00.508Z,506
2019-05-28T12:05:02.424Z,500
2019-05-28T12:06:04.846Z,511
2019-05-28T12:07:07.221Z,534
2019-05-28T12:08:09.460Z,562
2019-05-28T12:09:10.829Z,590
2019-05-28T12:10:13.068Z,624
2019-05-28T12:11:15.202Z,663
2019-05-28T12:12:17.243Z,736
2019-05-28T12:13:19.218Z,838
2019-05-28T12:14:21.195Z,939
2019-05-28T12:15:23.605Z,1029
2019-05-28T12:16:25.925Z,1153
2019-05-28T12:17:41.892Z,1153
2019-05-28T12:18:29.652Z,1192
2019-05-28T12:19:31.026Z,1231
2019-05-28T12:20:32.395Z,1372
2019-05-28T12:21:33.759Z,2143
2019-05-28T12:22:35.144Z,1361
2019-05-28T12:23:36.504Z,1237
2019-05-28T12:24:37.911Z,2036
2019-05-28T12:25:39.254Z,1552
2019-05-28T12:26:40.685Z,2761
2019-05-28T12:27:41.964Z,3290
2019-05-28T12:28:43.332Z,3166
2019-05-28T12:29:52.080Z,3082
2019-05-28T12:30:46.065Z,3161
2019-05-28T12:31:47.443Z,3178
2019-05-28T12:32:48.823Z,3082
2019-05-28T12:33:51.751Z,2846
2019-05-28T12:34:53.125Z,2874
2019-05-28T12:35:54.498Z,2857
2019-05-28T12:36:55.880Z,2626
2019-05-28T12:37:57.259Z,2615
2019-05-28T12:38:58.639Z,2767
2019-05-28T12:40:00.033Z,2722
2019-05-28T12:41:01.424Z,1192
2019-05-28T12:42:07.018Z,2593
2019-05-28T12:43:04.311Z,2581
2019-05-28T12:44:05.687Z,1890
2019-05-28T12:45:09.718Z,2289
2019-05-28T12:46:08.448Z,2418
2019-05-28T12:47:14.189Z,2255
2019-05-28T12:48:13.045Z,2216
2019-05-28T12:49:12.519Z,1833
2019-05-28T12:50:19.643Z,1991
2019-05-28T12:51:15.354Z,1760
2019-05-28T12:52:16.734Z,1546
2019-05-28T12:53:18.125Z,1428
2019-05-28T12:54:19.509Z,1389
2019-05-28T12:55:20.913Z,1473
2019-05-28T12:56:22.295Z,1271
2019-05-28T12:57:23.667Z,1276
2019-05-28T12:58:40.892Z,1220
2019-05-28T12:59:26.417Z,1350
2019-05-28T13:00:27.775Z,1490
2019-05-28T13:01:29.241Z,1676
2019-05-28T13:02:30.624Z,1704
2019-05-28T13:03:32.018Z,1704
2019-05-28T13:04:33.388Z,1715
2019-05-28T13:05:34.778Z,1850
2019-05-28T13:06:36.175Z,1884
2019-05-28T13:07:37.565Z,1490
2019-05-28T13:08:38.945Z,1614
2019-05-28T13:09:40.346Z,1591
2019-05-28T13:10:41.731Z,1563
2019-05-28T13:11:43.105Z,1721
2019-05-28T13:12:45.415Z,1777
2019-05-28T13:13:47.561Z,1811
2019-05-28T13:14:48.936Z,1794
2019-05-28T13:15:51.065Z,1906
2019-05-28T13:16:53.227Z,1828
2019-05-28T13:17:55.929Z,1130
2019-05-28T13:18:57.326Z,798
2019-05-28T13:19:59.374Z,1220
2019-05-28T13:21:01.334Z,1462
2019-05-28T13:22:03.716Z,1760
2019-05-28T13:23:05.954Z,1929
2019-05-28T13:24:07.330Z,1912
2019-05-28T13:25:09.561Z,1890
2019-05-28T13:26:14.382Z,1873
2019-05-28T13:27:18.160Z,1839
2019-05-28T13:28:13.744Z,1845
2019-05-28T13:29:16.516Z,1805
2019-05-28T13:30:18.301Z,1816
2019-05-28T13:31:20.035Z,1794
2019-05-28T13:32:22.059Z,1546
2019-05-28T13:33:24.006Z,1777
2019-05-28T13:34:25.931Z,1873
2019-05-28T13:35:28.317Z,1771
2019-05-28T13:36:29.686Z,1541
2019-05-28T13:37:31.083Z,1586
2019-05-28T13:38:32.986Z,1530
2019-05-28T13:39:35.056Z,1873
2019-05-28T13:40:37.690Z,1715
2019-05-28T13:41:39.080Z,1698
2019-05-28T13:42:41.096Z,1462
2019-05-28T13:43:43.039Z,1839
2019-05-28T13:44:45.446Z,1839
2019-05-28T13:45:47.719Z,1676
2019-05-28T13:46:49.974Z,849
2019-05-28T13:47:51.335Z,618
2019-05-28T13:49:55.499Z,568
2019-05-28T13:51:01.606Z,545
2019-05-28T13:52:12.091Z,540
2019-05-28T13:53:05.719Z,540
2019-05-28T13:54:07.817Z,534
2019-05-28T13:55:09.839Z,523
2019-05-28T13:56:11.847Z,528
2019-05-28T13:57:14.241Z,545
2019-05-28T13:58:15.670Z,540
2019-05-28T13:59:18.637Z,528
2019-05-28T14:00:20.011Z,506
2019-05-28T14:01:25.518Z,489
2019-05-28T14:02:26.129Z,483
2019-05-28T14:03:28.052Z,489
2019-05-28T14:04:30.449Z,517
2019-05-28T14:05:32.341Z,551
2019-05-28T14:06:34.721Z,562
2019-05-28T14:07:36.902Z,573
2019-05-28T14:08:46.719Z,590
2019-05-28T14:09:54.857Z,613
2019-05-28T14:10:56.343Z,646
2019-05-28T14:11:58.593Z,686
2019-05-28T14:13:00.751Z,776
2019-05-28T14:14:02.821Z,826
2019-05-28T14:15:04.870Z,922
2019-05-28T14:16:07.303Z,1586
2019-05-28T14:17:08.677Z,2745
2019-05-28T14:18:11.083Z,2767
2019-05-28T14:19:13.271Z,1158
2019-05-28T14:20:14.673Z,1147
2019-05-28T14:21:16.820Z,2430
2019-05-28T14:22:32.983Z,2407
2019-05-28T14:23:20.305Z,2362
2019-05-28T14:24:21.711Z,2205
2019-05-28T14:25:23.096Z,2283
2019-05-28T14:26:24.481Z,2160
2019-05-28T14:27:25.855Z,1918
2019-05-28T14:28:27.224Z,2002
2019-05-28T14:29:28.626Z,1783
2019-05-28T14:30:29.991Z,1833
2019-05-28T14:31:31.362Z,1906
2019-05-28T14:32:32.761Z,2030
2019-05-28T14:33:34.196Z,2019
2019-05-28T14:34:35.585Z,1867
2019-05-28T14:35:36.950Z,1794
2019-05-28T14:36:38.335Z,1687
2019-05-28T14:37:43.757Z,1575
2019-05-28T14:38:59.051Z,1636
2019-05-28T14:39:45.760Z,1738
2019-05-28T14:40:47.138Z,1777
2019-05-28T14:41:48.511Z,1693
2019-05-28T14:42:49.885Z,1743
2019-05-28T14:43:51.255Z,1563
2019-05-28T14:44:52.647Z,1614
2019-05-28T14:45:54.112Z,1715
2019-05-28T14:46:55.495Z,1575
2019-05-28T14:47:56.937Z,1288
2019-05-28T14:48:58.360Z,1569
2019-05-28T14:49:59.735Z,1631
2019-05-28T14:51:01.096Z,1738
2019-05-28T14:52:02.633Z,1659
2019-05-28T14:53:03.975Z,1580
2019-05-28T14:54:05.360Z,1608
2019-05-28T14:55:06.745Z,1681
2019-05-28T14:56:08.121Z,1620
2019-05-28T14:57:09.494Z,1732
2019-05-28T14:58:13.538Z,1698
2019-05-28T14:59:12.222Z,1704
2019-05-28T15:00:13.613Z,1715
2019-05-28T15:01:14.987Z,1704
2019-05-28T15:02:16.376Z,1715
2019-05-28T15:03:17.868Z,1726
2019-05-28T15:04:19.250Z,1670
2019-05-28T15:05:20.622Z,1569
2019-05-28T15:06:22.018Z,1586
2019-05-28T15:07:23.384Z,1541
2019-05-28T15:08:24.776Z,1777
2019-05-28T15:09:26.148Z,1321
2019-05-28T15:10:27.540Z,1479
2019-05-28T15:11:28.917Z,1293
2019-05-28T15:12:30.338Z,1698
2019-05-28T15:13:31.716Z,1693
2019-05-28T15:14:33.113Z,1681
2019-05-28T15:15:36.404Z,1681
2019-05-28T15:16:35.853Z,1783
2019-05-28T15:17:37.227Z,2053
2019-05-28T15:18:38.611Z,2160
2019-05-28T15:19:39.986Z,1940
2019-05-28T15:20:41.381Z,1490
2019-05-28T15:21:42.817Z,1209
2019-05-28T15:22:44.185Z,1215
2019-05-28T15:23:45.572Z,1366
2019-05-28T15:24:49.736Z,1479
2019-05-28T15:25:48.288Z,1625
2019-05-28T15:26:49.671Z,1400
2019-05-28T15:27:51.053Z,1563
2019-05-28T15:28:52.436Z,1361
2019-05-28T15:29:53.812Z,1316
2019-05-28T15:30:55.186Z,1113
2019-05-28T15:31:56.563Z,1248
2019-05-28T15:32:57.937Z,1760
2019-05-28T15:33:59.330Z,1608
2019-05-28T15:35:00.693Z,995
2019-05-28T15:36:02.078Z,866
2019-05-28T15:37:03.437Z,832
2019-05-28T15:38:04.828Z,883
2019-05-28T15:39:06.326Z,877
2019-05-28T15:40:07.705Z,821
2019-05-28T15:41:09.078Z,860
2019-05-28T15:42:19.667Z,1839
2019-05-28T15:43:11.802Z,2115
2019-05-28T15:44:13.167Z,1642
2019-05-28T15:45:14.552Z,1310
2019-05-28T15:46:15.928Z,1991
2019-05-28T15:47:17.320Z,905
2019-05-28T15:48:18.686Z,1383
2019-05-28T15:49:20.059Z,2002
2019-05-28T15:50:21.448Z,1575
2019-05-28T15:51:22.805Z,1811
2019-05-28T15:52:24.178Z,1783
2019-05-28T15:53:25.579Z,1473
2019-05-28T15:54:26.943Z,1389
2019-05-28T15:55:28.318Z,1361
2019-05-28T15:56:29.687Z,1507
2019-05-28T15:57:31.065Z,787
2019-05-28T15:58:32.440Z,1485
2019-05-28T15:59:33.808Z,1378
2019-05-28T16:00:35.201Z,905
2019-05-28T16:01:36.571Z,843
2019-05-28T16:02:37.958Z,1333
2019-05-28T16:03:39.334Z,1316
2019-05-28T16:04:40.704Z,1372
2019-05-28T16:05:42.117Z,1226
2019-05-28T16:06:43.544Z,1057
2019-05-28T16:07:44.914Z,1344
2019-05-28T16:08:46.286Z,1181
2019-05-28T16:09:56.061Z,1119
2019-05-28T16:10:49.037Z,973
2019-05-28T16:11:50.418Z,1276
2019-05-28T16:12:51.802Z,1265
2019-05-28T16:13:53.179Z,1260
2019-05-28T16:14:54.551Z,1316
2019-05-28T16:15:55.921Z,1338
2019-05-28T16:16:57.303Z,1170
2019-05-28T16:17:58.674Z,1186
2019-05-28T16:19:00.053Z,1068
2019-05-28T16:20:01.436Z,781
2019-05-28T16:21:02.813Z,945
2019-05-28T16:22:04.234Z,922
2019-05-28T16:23:05.539Z,900
2019-05-28T16:24:06.902Z,866
2019-05-28T16:25:08.282Z,826
2019-05-28T16:26:09.648Z,787
2019-05-28T16:27:11.037Z,770
2019-05-28T16:28:12.414Z,815
2019-05-28T16:29:13.791Z,787
2019-05-28T16:30:15.171Z,748
2019-05-28T16:31:16.548Z,703
2019-05-28T16:32:17.928Z,697
2019-05-28T16:33:19.399Z,652
2019-05-28T16:34:20.775Z,596
2019-05-28T16:35:22.147Z,573
2019-05-28T16:36:23.526Z,551
2019-05-28T16:37:24.902Z,528
2019-05-28T16:38:26.273Z,528
2019-05-28T16:39:27.648Z,573
2019-05-28T16:40:29.025Z,573
2019-05-28T16:41:30.405Z,534
2019-05-28T16:42:31.782Z,517
2019-05-28T16:43:33.154Z,517
2019-05-28T16:44:34.533Z,568
2019-05-28T16:45:35.911Z,579
2019-05-28T16:46:37.313Z,596
2019-05-28T16:47:38.663Z,630
2019-05-28T16:48:40.048Z,596
2019-05-28T16:49:41.433Z,573
2019-05-28T16:50:42.794Z,590
2019-05-28T16:51:44.164Z,585
2019-05-28T16:52:45.542Z,568
2019-05-28T16:53:46.976Z,556
2019-05-28T16:54:48.286Z,534
2019-05-28T16:55:49.642Z,523
2019-05-28T16:56:51.022Z,506
2019-05-28T16:57:52.477Z,495
2019-05-28T16:58:53.725Z,483
2019-05-28T16:59:55.098Z,483
2019-05-28T17:01:00.899Z,466
2019-05-28T17:01:57.842Z,461
2019-05-28T17:02:59.214Z,461
2019-05-28T17:04:00.598Z,495
2019-05-28T17:05:01.963Z,461
2019-05-28T17:06:03.334Z,466
2019-05-28T17:07:04.710Z,461
2019-05-28T17:08:06.103Z,478
2019-05-28T17:09:07.513Z,483
2019-05-28T17:10:08.880Z,495
2019-05-28T17:11:10.253Z,472
2019-05-28T17:12:11.650Z,427
2019-05-28T17:13:13.003Z,405
2019-05-28T17:14:14.367Z,399
2019-05-28T17:15:15.762Z,382
2019-05-28T17:16:17.131Z,399
2019-05-28T17:17:18.510Z,421
2019-05-28T17:18:37.338Z,438
2019-05-28T17:19:38.712Z,455
2019-05-28T17:20:40.084Z,461
2019-05-28T17:21:41.449Z,455
2019-05-28T17:22:42.824Z,444
2019-05-28T17:23:44.191Z,421
2019-05-28T17:24:45.602Z,405
2019-05-28T17:25:46.950Z,393
2019-05-28T17:26:48.314Z,382
2019-05-28T17:27:49.684Z,376
2019-05-28T17:28:51.051Z,376
2019-05-28T17:29:52.450Z,393
2019-05-28T17:30:53.818Z,393
2019-05-28T17:31:55.188Z,382
2019-05-28T17:32:56.557Z,393
2019-05-28T17:33:57.924Z,410
2019-05-28T17:34:59.295Z,416
2019-05-28T17:36:00.673Z,405
2019-05-28T17:37:02.057Z,410
2019-05-28T17:38:03.422Z,399
2019-05-28T17:39:04.905Z,399
2019-05-28T17:40:06.279Z,388
2019-05-28T17:41:07.638Z,382
2019-05-28T17:42:09.007Z,376
2019-05-28T17:43:10.384Z,371
2019-05-28T17:44:11.755Z,376
2019-05-28T17:45:13.124Z,365
2019-05-28T17:46:14.492Z,365
2019-05-28T17:47:15.923Z,365
2019-05-28T17:48:17.281Z,365
2019-05-28T17:49:18.679Z,348
2019-05-28T17:50:20.035Z,331
2019-05-28T17:51:21.412Z,326
2019-05-28T17:52:22.781Z,320
2019-05-28T17:53:24.146Z,320
2019-05-28T17:54:25.518Z,309
2019-05-28T17:55:26.875Z,303
2019-05-28T17:56:28.245Z,298
2019-05-28T17:57:29.628Z,292
2019-05-28T17:58:31.233Z,286
2019-05-28T17:59:32.315Z,281
2019-05-28T18:00:33.696Z,275
2019-05-28T18:01:35.074Z,270
2019-05-28T18:02:36.441Z,264
2019-05-28T18:03:37.843Z,258
2019-05-28T18:04:39.198Z,253
2019-05-28T18:05:40.569Z,241
2019-05-28T18:06:42.044Z,241
2019-05-28T18:07:43.420Z,230
2019-05-28T18:08:44.779Z,225
2019-05-28T18:09:46.145Z,219
2019-05-28T18:11:00.812Z,213
2019-05-28T18:11:48.855Z,208
2019-05-28T18:12:50.228Z,202
2019-05-28T18:13:51.586Z,202
2019-05-28T18:14:52.960Z,196
2019-05-28T18:15:54.348Z,196
2019-05-28T18:16:55.705Z,191
2019-05-28T18:17:57.079Z,185
2019-05-28T18:19:00.525Z,185
2019-05-28T18:19:59.787Z,180
2019-05-28T18:21:01.163Z,174
2019-05-28T18:22:02.700Z,168
2019-05-28T18:23:04.077Z,163
2019-05-28T18:24:05.429Z,157
2019-05-28T18:25:06.799Z,157
2019-05-28T18:26:08.159Z,157
2019-05-28T18:27:09.522Z,151
2019-05-28T18:28:10.901Z,146
2019-05-28T18:29:12.266Z,140
2019-05-28T18:30:13.633Z,135
2019-05-28T18:31:15.003Z,129
2019-05-28T18:32:16.369Z,129
2019-05-28T18:33:17.816Z,123
2019-05-28T18:34:19.180Z,118
2019-05-28T18:35:20.551Z,112
2019-05-28T18:36:21.915Z,106
2019-05-28T18:37:23.290Z,101
2019-05-28T18:38:24.664Z,95
2019-05-28T18:39:26.044Z,95
2019-05-28T18:40:27.398Z,90
2019-05-28T18:41:28.760Z,84
2019-05-28T18:42:30.132Z,84